createdAt,value
2023-03-27T00:00:05.526Z,8.06
2023-03-27T00:01:05.458Z,8.03
2023-03-27T00:02:05.517Z,8.00
2023-03-27T00:03:05.571Z,7.98
2023-03-27T00:04:06.460Z,7.95
2023-03-27T00:05:05.432Z,7.93
2023-03-27T00:06:05.412Z,7.93
2023-03-27T00:07:05.388Z,7.88
2023-03-27T00:08:06.385Z,7.87
2023-03-27T00:09:06.349Z,7.88
2023-03-27T00:10:05.436Z,7.83
2023-03-27T00:11:05.334Z,7.82
2023-03-27T00:12:05.326Z,7.83
2023-03-27T00:13:05.321Z,7.82
2023-03-27T00:14:06.301Z,7.83
2023-03-27T00:15:05.285Z,7.83
2023-03-27T00:16:05.295Z,7.82
2023-03-27T00:17:05.345Z,7.83
2023-03-27T00:18:05.296Z,7.82
2023-03-27T00:19:06.162Z,7.80
2023-03-27T00:20:05.282Z,7.80
2023-03-27T00:21:05.231Z,7.80
2023-03-27T00:22:05.188Z,7.82
2023-03-27T00:23:05.185Z,7.83
2023-03-27T00:24:06.113Z,7.85
2023-03-27T00:25:06.081Z,7.82
2023-03-27T00:26:05.171Z,7.83
2023-03-27T00:27:05.181Z,7.77
2023-03-27T00:28:05.155Z,7.77
2023-03-27T00:29:05.099Z,7.76
2023-03-27T00:30:05.994Z,7.76
2023-03-27T00:31:05.124Z,7.76
2023-03-27T00:32:05.046Z,7.75
2023-03-27T00:33:05.046Z,7.75
2023-03-27T00:34:05.026Z,7.76
2023-03-27T00:35:05.058Z,7.75
2023-03-27T00:36:06.000Z,7.76
2023-03-27T00:37:05.077Z,7.76
2023-03-27T00:38:05.000Z,7.76
2023-03-27T00:39:04.984Z,7.73
2023-03-27T00:40:05.040Z,7.73
2023-03-27T00:41:05.897Z,7.73
2023-03-27T00:42:04.921Z,7.73
2023-03-27T00:43:04.935Z,7.72
2023-03-27T00:44:04.886Z,7.72
2023-03-27T00:45:04.922Z,7.70
2023-03-27T00:46:05.850Z,7.69
2023-03-27T00:47:04.899Z,7.58
2023-03-27T00:48:04.986Z,7.53
2023-03-27T00:49:04.850Z,7.50
2023-03-27T00:50:04.819Z,7.48
2023-03-27T00:51:04.826Z,7.47
2023-03-27T00:52:05.755Z,7.47
2023-03-27T00:53:04.794Z,7.47
2023-03-27T00:54:04.758Z,7.47
2023-03-27T00:55:04.793Z,7.50
2023-03-27T00:56:04.738Z,7.50
2023-03-27T00:57:05.704Z,7.50
2023-03-27T00:58:04.721Z,7.48
2023-03-27T00:59:04.762Z,7.50
2023-03-27T01:00:04.707Z,7.50
2023-03-27T01:01:04.702Z,7.50
2023-03-27T01:02:05.598Z,7.50
2023-03-27T01:03:04.833Z,7.51
2023-03-27T01:04:04.660Z,7.50
2023-03-27T01:05:05.602Z,7.51
2023-03-27T01:06:04.670Z,7.51
2023-03-27T01:07:04.587Z,7.51
2023-03-27T01:08:05.544Z,7.51
2023-03-27T01:09:04.679Z,7.53
2023-03-27T01:10:04.582Z,7.50
2023-03-27T01:11:04.619Z,7.50
2023-03-27T01:12:04.520Z,7.50
2023-03-27T01:13:05.552Z,7.48
2023-03-27T01:14:04.556Z,7.47
2023-03-27T01:15:04.559Z,7.45
2023-03-27T01:16:04.586Z,7.43
2023-03-27T01:17:04.450Z,7.43
2023-03-27T01:18:05.501Z,7.45
2023-03-27T01:19:04.508Z,7.43
2023-03-27T01:20:04.502Z,7.43
2023-03-27T01:21:04.468Z,7.42
2023-03-27T01:22:04.470Z,7.42
2023-03-27T01:23:05.338Z,7.39
2023-03-27T01:24:04.388Z,7.39
2023-03-27T01:25:04.432Z,7.40
2023-03-27T01:26:04.494Z,7.38
2023-03-27T01:27:04.423Z,7.33
2023-03-27T01:28:05.254Z,7.33
2023-03-27T01:29:04.309Z,7.35
2023-03-27T01:30:04.422Z,7.36
2023-03-27T01:31:04.326Z,7.33
2023-03-27T01:32:04.351Z,7.32
2023-03-27T01:33:04.318Z,7.32
2023-03-27T01:34:05.477Z,7.32
2023-03-27T01:35:04.307Z,7.32
2023-03-27T01:36:04.342Z,7.32
2023-03-27T01:37:04.243Z,7.32
2023-03-27T01:38:04.191Z,7.32
2023-03-27T01:39:04.177Z,7.31
2023-03-27T01:40:05.228Z,7.29
2023-03-27T01:41:04.185Z,7.31
2023-03-27T01:42:04.204Z,7.29
2023-03-27T01:43:04.198Z,7.31
2023-03-27T01:44:04.154Z,7.28
2023-03-27T01:45:04.105Z,7.25
2023-03-27T01:46:05.097Z,7.23
2023-03-27T01:47:04.319Z,7.21
2023-03-27T01:48:04.133Z,7.20
2023-03-27T01:49:04.056Z,7.17
2023-03-27T01:50:04.923Z,7.18
2023-03-27T01:51:05.014Z,7.17
2023-03-27T01:52:04.036Z,7.20
2023-03-27T01:53:04.017Z,7.21
2023-03-27T01:54:04.028Z,7.23
2023-03-27T01:55:03.985Z,7.24
2023-03-27T01:56:03.978Z,7.25
2023-03-27T01:57:04.966Z,7.24
2023-03-27T01:58:03.978Z,7.23
2023-03-27T01:59:04.824Z,7.20
2023-03-27T02:00:18.563Z,7.21
2023-03-27T02:01:05.789Z,7.18
2023-03-27T02:02:03.926Z,7.17
2023-03-27T02:03:04.955Z,7.15
2023-03-27T02:04:03.903Z,7.17
2023-03-27T02:05:03.919Z,7.17
2023-03-27T02:06:03.859Z,7.15
2023-03-27T02:07:03.832Z,7.14
2023-03-27T02:08:03.804Z,7.14
2023-03-27T02:09:04.810Z,7.11
2023-03-27T02:10:03.807Z,7.10
2023-03-27T02:11:03.768Z,7.13
2023-03-27T02:12:03.773Z,7.10
2023-03-27T02:13:03.726Z,7.07
2023-03-27T02:14:03.783Z,7.06
2023-03-27T02:15:23.780Z,7.03
2023-03-27T02:16:05.230Z,7.03
2023-03-27T02:17:03.720Z,7.03
2023-03-27T02:18:03.725Z,7.03
2023-03-27T02:19:03.731Z,7.03
2023-03-27T02:20:04.610Z,7.03
2023-03-27T02:21:03.951Z,7.03
2023-03-27T02:22:03.656Z,7.03
2023-03-27T02:23:03.620Z,7.03
2023-03-27T02:24:03.582Z,7.05
2023-03-27T02:25:04.512Z,7.05
2023-03-27T02:26:04.498Z,7.05
2023-03-27T02:27:03.573Z,7.05
2023-03-27T02:28:03.566Z,7.05
2023-03-27T02:29:03.515Z,7.05
2023-03-27T02:30:03.495Z,7.05
2023-03-27T02:31:31.065Z,7.06
2023-03-27T02:32:04.586Z,7.05
2023-03-27T02:33:03.556Z,7.02
2023-03-27T02:34:03.462Z,7.02
2023-03-27T02:35:03.491Z,7.00
2023-03-27T02:36:04.401Z,6.97
2023-03-27T02:37:03.470Z,6.97
2023-03-27T02:38:03.500Z,6.96
2023-03-27T02:39:03.412Z,6.95
2023-03-27T02:40:03.377Z,6.93
2023-03-27T02:41:03.390Z,6.87
2023-03-27T02:42:04.304Z,6.81
2023-03-27T02:43:03.637Z,6.79
2023-03-27T02:44:03.313Z,6.74
2023-03-27T02:45:03.418Z,6.70
2023-03-27T02:46:03.345Z,6.67
2023-03-27T02:47:03.327Z,6.66
2023-03-27T02:48:04.333Z,6.63
2023-03-27T02:49:03.315Z,6.63
2023-03-27T02:50:03.285Z,6.63
2023-03-27T02:51:03.267Z,6.63
2023-03-27T02:52:03.281Z,6.59
2023-03-27T02:53:04.155Z,6.56
2023-03-27T02:54:03.211Z,6.51
2023-03-27T02:55:03.204Z,6.48
2023-03-27T02:56:03.157Z,6.45
2023-03-27T02:57:03.239Z,6.44
2023-03-27T02:58:03.269Z,6.44
2023-03-27T02:59:04.144Z,6.42
2023-03-27T03:00:03.133Z,6.39
2023-03-27T03:01:03.157Z,6.41
2023-03-27T03:02:03.143Z,6.44
2023-03-27T03:03:03.198Z,6.46
2023-03-27T03:04:03.073Z,6.48
2023-03-27T03:05:04.018Z,6.48
2023-03-27T03:06:03.091Z,6.48
2023-03-27T03:07:03.039Z,6.48
2023-03-27T03:08:03.027Z,6.48
2023-03-27T03:09:03.048Z,6.49
2023-03-27T03:10:03.024Z,6.48
2023-03-27T03:11:03.942Z,6.46
2023-03-27T03:12:02.950Z,6.46
2023-03-27T03:13:02.961Z,6.46
2023-03-27T03:14:02.968Z,6.46
2023-03-27T03:15:03.005Z,6.46
2023-03-27T03:16:02.901Z,6.44
2023-03-27T03:17:03.860Z,6.44
2023-03-27T03:18:03.010Z,6.45
2023-03-27T03:19:03.792Z,6.45
2023-03-27T03:20:02.907Z,6.44
2023-03-27T03:21:02.873Z,6.41
2023-03-27T03:22:03.748Z,6.36
2023-03-27T03:23:02.885Z,6.33
2023-03-27T03:24:02.806Z,6.26
2023-03-27T03:25:02.880Z,6.22
2023-03-27T03:26:02.796Z,6.20
2023-03-27T03:27:03.698Z,6.20
2023-03-27T03:28:02.774Z,6.22
2023-03-27T03:29:02.792Z,6.24
2023-03-27T03:30:02.769Z,6.27
2023-03-27T03:31:02.797Z,6.30
2023-03-27T03:32:03.648Z,6.33
2023-03-27T03:33:02.798Z,6.35
2023-03-27T03:34:02.686Z,6.36
2023-03-27T03:35:02.764Z,6.38
2023-03-27T03:36:02.683Z,6.41
2023-03-27T03:37:02.665Z,6.41
2023-03-27T03:38:03.598Z,6.42
2023-03-27T03:39:02.613Z,6.41
2023-03-27T03:40:02.600Z,6.41
2023-03-27T03:41:02.583Z,6.36
2023-03-27T03:42:02.572Z,6.36
2023-03-27T03:43:02.564Z,6.36
2023-03-27T03:44:04.457Z,6.33
2023-03-27T03:45:02.516Z,6.30
2023-03-27T03:46:02.534Z,6.27
2023-03-27T03:47:02.585Z,6.22
2023-03-27T03:48:02.581Z,6.22
2023-03-27T03:49:02.493Z,6.17
2023-03-27T03:50:03.422Z,6.17
2023-03-27T03:51:02.421Z,6.17
2023-03-27T03:52:04.304Z,6.16
2023-03-27T03:53:02.421Z,6.12
2023-03-27T03:54:02.503Z,6.12
2023-03-27T03:55:03.362Z,6.11
2023-03-27T03:56:02.386Z,6.09
2023-03-27T03:57:02.398Z,6.08
2023-03-27T03:58:02.444Z,6.07
2023-03-27T03:59:02.458Z,6.07
2023-03-27T04:00:03.252Z,6.07
2023-03-27T04:01:02.351Z,6.05
2023-03-27T04:02:02.348Z,6.04
2023-03-27T04:03:02.374Z,6.02
2023-03-27T04:04:02.316Z,6.04
2023-03-27T04:05:08.848Z,6.02
2023-03-27T04:06:04.735Z,6.02
2023-03-27T04:07:03.212Z,6.02
2023-03-27T04:08:02.352Z,6.01
2023-03-27T04:09:02.239Z,6.01
2023-03-27T04:10:02.188Z,6.01
2023-03-27T04:11:02.180Z,5.99
2023-03-27T04:12:03.097Z,6.01
2023-03-27T04:13:02.153Z,5.99
2023-03-27T04:14:02.193Z,6.01
2023-03-27T04:15:02.206Z,5.98
2023-03-27T04:16:02.202Z,5.93
2023-03-27T04:17:02.107Z,5.90
2023-03-27T04:18:03.115Z,5.89
2023-03-27T04:19:02.108Z,5.86
2023-03-27T04:20:02.157Z,5.84
2023-03-27T04:21:02.062Z,5.83
2023-03-27T04:22:02.065Z,5.83
2023-03-27T04:23:02.054Z,5.82
2023-03-27T04:24:03.032Z,5.82
2023-03-27T04:25:02.015Z,5.82
2023-03-27T04:26:02.167Z,5.82
2023-03-27T04:27:01.966Z,5.82
2023-03-27T04:28:01.988Z,5.80
2023-03-27T04:29:01.972Z,5.79
2023-03-27T04:30:02.937Z,5.79
2023-03-27T04:31:02.008Z,5.73
2023-03-27T04:32:01.965Z,5.73
2023-03-27T04:33:01.987Z,5.72
2023-03-27T04:34:01.913Z,5.73
2023-03-27T04:35:02.821Z,5.73
2023-03-27T04:36:07.388Z,5.72
2023-03-27T04:37:03.338Z,5.75
2023-03-27T04:38:02.886Z,5.73
2023-03-27T04:39:01.820Z,5.71
2023-03-27T04:40:01.858Z,5.72
2023-03-27T04:41:02.731Z,5.71
2023-03-27T04:42:01.772Z,5.71
2023-03-27T04:43:01.772Z,5.69
2023-03-27T04:44:01.826Z,5.71
2023-03-27T04:45:01.761Z,5.72
2023-03-27T04:46:01.737Z,5.73
2023-03-27T04:47:02.724Z,5.75
2023-03-27T04:48:01.776Z,5.75
2023-03-27T04:49:01.694Z,5.73
2023-03-27T04:50:01.704Z,5.72
2023-03-27T04:51:01.681Z,5.69
2023-03-27T04:52:01.675Z,5.69
2023-03-27T04:53:02.608Z,5.68
2023-03-27T04:54:01.678Z,5.68
2023-03-27T04:55:01.648Z,5.65
2023-03-27T04:56:01.662Z,5.64
2023-03-27T04:57:01.835Z,5.61
2023-03-27T04:58:03.497Z,5.59
2023-03-27T04:59:01.564Z,5.61
2023-03-27T05:00:01.570Z,5.59
2023-03-27T05:01:01.796Z,5.59
2023-03-27T05:02:01.671Z,5.59
2023-03-27T05:03:01.596Z,5.59
2023-03-27T05:04:02.638Z,5.54
2023-03-27T05:05:01.493Z,5.53
2023-03-27T05:06:01.500Z,5.48
2023-03-27T05:07:01.448Z,5.47
2023-03-27T05:08:01.433Z,5.41
2023-03-27T05:09:01.518Z,5.41
2023-03-27T05:10:02.387Z,5.43
2023-03-27T05:11:01.389Z,5.43
2023-03-27T05:12:01.411Z,5.41
2023-03-27T05:13:01.417Z,5.41
2023-03-27T05:14:01.370Z,5.41
2023-03-27T05:15:01.346Z,5.39
2023-03-27T05:16:02.318Z,5.36
2023-03-27T05:17:01.350Z,5.30
2023-03-27T05:18:01.440Z,5.29
2023-03-27T05:19:01.306Z,5.29
2023-03-27T05:20:01.303Z,5.28
2023-03-27T05:21:02.236Z,5.25
2023-03-27T05:22:02.247Z,5.23
2023-03-27T05:23:01.316Z,5.20
2023-03-27T05:24:01.262Z,5.20
2023-03-27T05:25:01.244Z,5.18
2023-03-27T05:26:02.162Z,5.15
2023-03-27T05:27:01.230Z,5.12
2023-03-27T05:28:01.251Z,5.07
2023-03-27T05:29:01.218Z,5.07
2023-03-27T05:30:01.180Z,5.08
2023-03-27T05:31:01.314Z,5.07
2023-03-27T05:32:02.155Z,5.10
2023-03-27T05:33:01.247Z,5.11
2023-03-27T05:34:01.133Z,5.12
2023-03-27T05:35:01.172Z,5.17
2023-03-27T05:36:01.162Z,5.17
2023-03-27T05:37:01.115Z,5.18
2023-03-27T05:38:02.005Z,5.21
2023-03-27T05:39:01.118Z,5.25
2023-03-27T05:40:01.358Z,5.28
2023-03-27T05:41:01.100Z,5.30
2023-03-27T05:42:01.962Z,5.33
2023-03-27T05:43:01.047Z,5.33
2023-03-27T05:44:01.916Z,5.35
2023-03-27T05:45:00.998Z,5.35
2023-03-27T05:46:01.023Z,5.33
2023-03-27T05:47:00.957Z,5.33
2023-03-27T05:48:00.972Z,5.32
2023-03-27T05:49:01.855Z,5.33
2023-03-27T05:50:00.943Z,5.33
2023-03-27T05:51:00.921Z,5.35
2023-03-27T05:52:00.899Z,5.38
2023-03-27T05:53:00.875Z,5.39
2023-03-27T05:54:00.898Z,5.36
2023-03-27T05:55:01.879Z,5.33
2023-03-27T05:56:03.151Z,5.32
2023-03-27T05:57:00.862Z,5.29
2023-03-27T05:58:00.832Z,5.25
2023-03-27T05:59:00.868Z,5.23
2023-03-27T06:00:01.754Z,5.25
2023-03-27T06:01:00.809Z,5.28
2023-03-27T06:02:00.787Z,5.33
2023-03-27T06:03:00.793Z,5.36
2023-03-27T06:04:00.832Z,5.43
2023-03-27T06:05:00.736Z,5.47
2023-03-27T06:06:01.655Z,5.51
2023-03-27T06:07:00.692Z,5.54
2023-03-27T06:08:00.684Z,5.53
2023-03-27T06:09:00.704Z,5.51
2023-03-27T06:10:00.704Z,5.54
2023-03-27T06:11:00.641Z,5.57
2023-03-27T06:12:01.571Z,5.62
2023-03-27T06:13:00.638Z,5.68
2023-03-27T06:14:00.646Z,5.73
2023-03-27T06:15:00.712Z,5.80
2023-03-27T06:16:00.914Z,5.86
2023-03-27T06:17:01.511Z,5.91
2023-03-27T06:18:01.619Z,5.97
2023-03-27T06:19:00.582Z,6.01
2023-03-27T06:20:00.555Z,6.02
2023-03-27T06:21:00.581Z,6.02
2023-03-27T06:22:00.515Z,6.02
2023-03-27T06:23:01.488Z,6.04
2023-03-27T06:24:01.383Z,6.07
2023-03-27T06:25:00.479Z,6.07
2023-03-27T06:26:00.457Z,6.09
2023-03-27T06:27:00.472Z,6.11
2023-03-27T06:28:01.398Z,6.12
2023-03-27T06:29:00.430Z,6.14
2023-03-27T06:30:02.785Z,6.14
2023-03-27T06:31:00.395Z,6.16
2023-03-27T06:32:00.348Z,6.19
2023-03-27T06:33:00.458Z,6.26
2023-03-27T06:34:01.324Z,6.36
2023-03-27T06:35:00.328Z,6.46
2023-03-27T06:36:00.963Z,6.59
2023-03-27T06:37:00.317Z,6.66
2023-03-27T06:38:00.604Z,6.70
2023-03-27T06:39:01.392Z,6.70
2023-03-27T06:40:00.329Z,6.69
2023-03-27T06:41:00.247Z,6.69
2023-03-27T06:42:00.259Z,6.69
2023-03-27T06:43:00.225Z,6.64
2023-03-27T06:44:01.165Z,6.63
2023-03-27T06:45:00.208Z,6.59
2023-03-27T06:46:00.309Z,6.41
2023-03-27T06:47:00.267Z,6.24
2023-03-27T06:48:13.810Z,6.17
2023-03-27T06:49:02.577Z,6.14
2023-03-27T06:50:00.212Z,6.16
2023-03-27T06:51:00.293Z,6.17
2023-03-27T06:52:00.287Z,6.24
2023-03-27T06:53:00.109Z,6.28
2023-03-27T06:54:00.127Z,6.33
2023-03-27T06:55:01.048Z,6.36
2023-03-27T06:56:00.274Z,6.39
2023-03-27T06:57:00.169Z,6.45
2023-03-27T06:58:00.139Z,6.49
2023-03-27T06:59:00.904Z,6.56
2023-03-27T07:00:02.285Z,6.60
2023-03-27T07:01:00.946Z,6.64
2023-03-27T07:02:00.898Z,6.67
2023-03-27T07:03:00.056Z,6.67
2023-03-27T07:03:59.951Z,6.70
2023-03-27T07:05:07.416Z,6.72
2023-03-27T07:06:03.580Z,6.75
2023-03-27T07:06:59.948Z,6.79
2023-03-27T07:08:05.474Z,6.82
2023-03-27T07:09:01.414Z,6.89
2023-03-27T07:09:59.899Z,6.97
2023-03-27T07:11:10.594Z,7.03
2023-03-27T07:12:02.337Z,7.11
2023-03-27T07:12:59.866Z,7.17
2023-03-27T07:13:59.921Z,7.23
2023-03-27T07:14:59.845Z,7.24
2023-03-27T07:16:00.806Z,7.25
2023-03-27T07:17:00.776Z,7.31
2023-03-27T07:17:59.827Z,7.35
2023-03-27T07:19:02.234Z,7.40
2023-03-27T07:19:59.831Z,7.53
2023-03-27T07:21:00.225Z,7.61
2023-03-27T07:22:00.663Z,7.73
2023-03-27T07:22:59.786Z,7.79
2023-03-27T07:23:59.817Z,7.85
2023-03-27T07:24:59.728Z,7.93
2023-03-27T07:25:59.866Z,7.97
2023-03-27T07:26:59.658Z,8.01
2023-03-27T07:28:00.631Z,8.08
2023-03-27T07:29:00.604Z,8.08
2023-03-27T07:29:59.669Z,8.12
2023-03-27T07:30:59.878Z,8.16
2023-03-27T07:32:02.856Z,8.23
2023-03-27T07:33:01.134Z,8.30
2023-03-27T07:34:00.596Z,8.37
2023-03-27T07:34:59.567Z,8.45
2023-03-27T07:35:59.712Z,8.46
2023-03-27T07:36:59.576Z,8.41
2023-03-27T07:37:59.569Z,8.38
2023-03-27T07:38:59.527Z,8.49
2023-03-27T07:40:00.410Z,8.56
2023-03-27T07:40:59.484Z,8.64
2023-03-27T07:41:59.465Z,8.70
2023-03-27T07:42:59.466Z,8.71
2023-03-27T07:43:59.569Z,8.82
2023-03-27T07:45:01.787Z,8.97
2023-03-27T07:45:59.783Z,9.08
2023-03-27T07:46:59.415Z,9.10
2023-03-27T07:47:59.462Z,9.13
2023-03-27T07:48:59.362Z,9.21
2023-03-27T07:49:59.382Z,9.21
2023-03-27T07:51:10.868Z,9.19
2023-03-27T07:52:00.848Z,9.18
2023-03-27T07:52:59.421Z,9.13
2023-03-27T07:53:59.390Z,9.10
2023-03-27T07:55:00.295Z,8.99
2023-03-27T07:56:00.695Z,8.89
2023-03-27T07:57:00.348Z,8.81
2023-03-27T07:58:02.517Z,8.76
2023-03-27T07:58:59.278Z,8.63
2023-03-27T07:59:59.256Z,8.48
2023-03-27T08:00:59.243Z,8.30
2023-03-27T08:02:00.149Z,8.10
2023-03-27T08:02:59.507Z,7.98
2023-03-27T08:03:59.547Z,7.95
2023-03-27T08:04:59.383Z,7.98
2023-03-27T08:05:59.326Z,8.01
2023-03-27T08:07:00.104Z,8.01
2023-03-27T08:07:59.141Z,7.94
2023-03-27T08:08:59.763Z,7.88
2023-03-27T08:09:59.100Z,7.83
2023-03-27T08:10:59.147Z,7.77
2023-03-27T08:11:59.128Z,7.66
2023-03-27T08:13:00.051Z,7.61
2023-03-27T08:13:59.167Z,7.63
2023-03-27T08:14:59.041Z,7.79
2023-03-27T08:15:59.028Z,7.98
2023-03-27T08:17:14.447Z,8.00
2023-03-27T08:18:01.526Z,8.03
2023-03-27T08:18:59.029Z,8.12
2023-03-27T08:19:59.970Z,8.26
2023-03-27T08:20:58.987Z,8.49
2023-03-27T08:21:59.000Z,8.66
2023-03-27T08:22:59.893Z,8.73
2023-03-27T08:23:58.965Z,8.78
2023-03-27T08:24:58.943Z,8.84
2023-03-27T08:25:58.936Z,8.92
2023-03-27T08:26:58.886Z,9.00
2023-03-27T08:27:58.858Z,9.14
2023-03-27T08:28:59.878Z,9.14
2023-03-27T08:29:58.857Z,9.14
2023-03-27T08:31:02.676Z,9.14
2023-03-27T08:31:58.848Z,9.06
2023-03-27T08:32:58.852Z,9.00
2023-03-27T08:33:59.712Z,8.99
2023-03-27T08:34:58.815Z,9.04
2023-03-27T08:35:59.015Z,9.18
2023-03-27T08:36:58.759Z,9.21
2023-03-27T08:37:58.934Z,9.22
2023-03-27T08:38:59.754Z,9.14
2023-03-27T08:39:58.793Z,9.14
2023-03-27T08:40:58.718Z,9.32
2023-03-27T08:41:58.710Z,9.37
2023-03-27T08:42:58.668Z,9.37
2023-03-27T08:43:59.609Z,9.13
2023-03-27T08:44:58.686Z,8.92
2023-03-27T08:45:58.999Z,8.74
2023-03-27T08:46:58.655Z,8.74
2023-03-27T08:47:58.668Z,8.64
2023-03-27T08:48:59.602Z,8.55
2023-03-27T08:49:58.574Z,8.45
2023-03-27T08:50:58.567Z,8.37
2023-03-27T08:51:58.572Z,8.20
2023-03-27T08:52:58.585Z,8.05
2023-03-27T08:53:58.546Z,7.83
2023-03-27T08:54:59.436Z,7.66
2023-03-27T08:55:58.783Z,7.72
2023-03-27T08:56:58.499Z,7.66
2023-03-27T08:57:58.529Z,7.67
2023-03-27T08:58:58.529Z,7.90
2023-03-27T08:59:58.457Z,8.24
2023-03-27T09:00:59.408Z,8.41
2023-03-27T09:01:58.477Z,8.45
2023-03-27T09:02:58.536Z,8.49
2023-03-27T09:03:58.477Z,8.55
2023-03-27T09:04:58.400Z,8.58
2023-03-27T09:05:58.703Z,8.63
2023-03-27T09:06:59.278Z,8.67
2023-03-27T09:07:58.344Z,8.82
2023-03-27T09:08:58.360Z,9.10
2023-03-27T09:09:58.351Z,9.19
2023-03-27T09:10:58.301Z,9.16
2023-03-27T09:11:58.385Z,9.19
2023-03-27T09:12:59.227Z,9.26
2023-03-27T09:13:58.300Z,9.34
2023-03-27T09:14:58.295Z,9.46
2023-03-27T09:15:58.448Z,9.34
2023-03-27T09:16:58.272Z,9.11
2023-03-27T09:17:59.285Z,8.85
2023-03-27T09:18:58.229Z,8.74
2023-03-27T09:19:58.240Z,8.64
2023-03-27T09:20:58.181Z,8.58
2023-03-27T09:21:58.204Z,8.55
2023-03-27T09:22:59.138Z,8.51
2023-03-27T09:23:58.181Z,8.48
2023-03-27T09:24:58.169Z,8.45
2023-03-27T09:25:58.278Z,8.36
2023-03-27T09:27:06.803Z,8.49
2023-03-27T09:28:01.551Z,8.60
2023-03-27T09:28:58.135Z,8.55
2023-03-27T09:30:05.816Z,8.70
2023-03-27T09:30:59.571Z,8.94
2023-03-27T09:31:58.077Z,9.23
2023-03-27T09:32:58.065Z,9.51
2023-03-27T09:33:58.944Z,9.64
2023-03-27T09:34:58.002Z,9.64
2023-03-27T09:35:58.182Z,9.77
2023-03-27T09:36:58.037Z,9.76
2023-03-27T09:37:58.034Z,9.79
2023-03-27T09:38:57.973Z,9.79
2023-03-27T09:39:58.886Z,9.66
2023-03-27T09:40:57.913Z,9.77
2023-03-27T09:41:57.977Z,9.80
2023-03-27T09:42:57.916Z,9.69
2023-03-27T09:43:57.931Z,9.80
2023-03-27T09:44:58.847Z,9.86
2023-03-27T09:45:58.166Z,9.87
2023-03-27T09:46:57.969Z,9.97
2023-03-27T09:47:57.940Z,10.13
2023-03-27T09:48:57.814Z,10.33
2023-03-27T09:49:58.739Z,10.40
2023-03-27T09:50:57.924Z,10.69
2023-03-27T09:51:57.786Z,11.05
2023-03-27T09:52:57.829Z,11.25
2023-03-27T09:53:57.766Z,11.19
2023-03-27T09:54:58.706Z,10.71
2023-03-27T09:55:57.783Z,10.28
2023-03-27T09:56:57.769Z,10.09
2023-03-27T09:57:57.753Z,9.94
2023-03-27T09:58:57.730Z,9.72
2023-03-27T09:59:57.669Z,9.62
2023-03-27T10:00:58.825Z,9.58
2023-03-27T10:01:57.939Z,9.56
2023-03-27T10:02:57.718Z,9.55
2023-03-27T10:03:57.741Z,9.56
2023-03-27T10:04:57.639Z,9.58
2023-03-27T10:05:58.570Z,9.66
2023-03-27T10:06:57.593Z,9.84
2023-03-27T10:07:57.594Z,10.04
2023-03-27T10:08:57.601Z,10.07
2023-03-27T10:09:57.561Z,10.09
2023-03-27T10:10:57.817Z,10.09
2023-03-27T10:11:58.488Z,10.07
2023-03-27T10:12:57.518Z,10.10
2023-03-27T10:13:57.564Z,10.07
2023-03-27T10:14:57.514Z,10.04
2023-03-27T10:15:57.528Z,10.04
2023-03-27T10:16:58.417Z,10.04
2023-03-27T10:17:57.602Z,9.92
2023-03-27T10:18:57.480Z,9.82
2023-03-27T10:19:57.432Z,9.66
2023-03-27T10:20:57.616Z,9.47
2023-03-27T10:21:57.623Z,9.44
2023-03-27T10:22:59.296Z,9.32
2023-03-27T10:23:57.385Z,9.21
2023-03-27T10:24:57.390Z,9.16
2023-03-27T10:25:59.086Z,9.37
2023-03-27T10:26:57.383Z,9.73
2023-03-27T10:27:58.220Z,10.09
2023-03-27T10:28:58.276Z,10.49
2023-03-27T10:29:57.339Z,10.84
2023-03-27T10:30:57.393Z,11.10
2023-03-27T10:31:57.298Z,11.26
2023-03-27T10:32:57.323Z,11.10
2023-03-27T10:33:58.230Z,11.05
2023-03-27T10:34:57.251Z,11.05
2023-03-27T10:35:57.223Z,11.05
2023-03-27T10:36:57.293Z,11.04
2023-03-27T10:37:57.241Z,10.97
2023-03-27T10:38:57.190Z,10.90
2023-03-27T10:39:58.093Z,10.84
2023-03-27T10:40:57.323Z,10.84
2023-03-27T10:41:57.215Z,10.99
2023-03-27T10:42:57.112Z,11.10
2023-03-27T10:43:57.146Z,11.26
2023-03-27T10:44:57.105Z,11.32
2023-03-27T10:46:03.345Z,11.17
2023-03-27T10:46:57.173Z,11.07
2023-03-27T10:47:57.226Z,10.97
2023-03-27T10:48:57.066Z,10.96
2023-03-27T10:49:57.141Z,10.96
2023-03-27T10:50:58.264Z,11.23
2023-03-27T10:51:57.006Z,11.48
2023-03-27T10:52:56.998Z,12.00
2023-03-27T10:53:57.162Z,12.49
2023-03-27T10:54:57.074Z,12.98
2023-03-27T10:55:57.072Z,13.49
2023-03-27T10:56:57.931Z,13.54
2023-03-27T10:57:56.923Z,13.33
2023-03-27T10:58:56.978Z,13.13
2023-03-27T10:59:56.973Z,12.98
2023-03-27T11:00:57.073Z,12.94
2023-03-27T11:01:56.939Z,13.25
2023-03-27T11:02:57.818Z,13.09
2023-03-27T11:03:56.917Z,12.94
2023-03-27T11:04:56.848Z,12.83
2023-03-27T11:05:56.873Z,12.80
2023-03-27T11:06:57.686Z,12.90
2023-03-27T11:07:56.866Z,12.95
2023-03-27T11:08:57.727Z,13.57
2023-03-27T11:09:57.646Z,14.03
2023-03-27T11:10:56.916Z,13.95
2023-03-27T11:11:56.726Z,14.25
2023-03-27T11:12:56.750Z,14.41
2023-03-27T11:13:56.810Z,14.65
2023-03-27T11:14:57.626Z,15.09
2023-03-27T11:15:56.679Z,15.47
2023-03-27T11:16:57.609Z,15.90
2023-03-27T11:17:56.737Z,16.32
2023-03-27T11:18:57.541Z,16.84
2023-03-27T11:19:57.577Z,16.76
2023-03-27T11:20:56.906Z,16.47
2023-03-27T11:21:57.544Z,16.00
2023-03-27T11:22:56.634Z,15.55
2023-03-27T11:23:56.695Z,15.29
2023-03-27T11:24:57.515Z,14.86
2023-03-27T11:25:56.589Z,14.50
2023-03-27T11:26:56.545Z,14.26
2023-03-27T11:27:56.533Z,14.08
2023-03-27T11:28:56.596Z,14.47
2023-03-27T11:29:57.517Z,14.89
2023-03-27T11:30:56.764Z,14.77
2023-03-27T11:31:57.484Z,14.88
2023-03-27T11:32:56.586Z,14.84
2023-03-27T11:33:56.453Z,15.37
2023-03-27T11:34:57.385Z,15.86
2023-03-27T11:35:56.444Z,16.35
2023-03-27T11:36:56.420Z,16.74
2023-03-27T11:37:56.489Z,16.90
2023-03-27T11:38:56.435Z,16.65
2023-03-27T11:39:57.313Z,16.57
2023-03-27T11:40:56.904Z,16.53
2023-03-27T11:41:56.404Z,16.57
2023-03-27T11:42:57.090Z,15.84
2023-03-27T11:43:56.362Z,15.36
2023-03-27T11:44:56.302Z,15.31
2023-03-27T11:45:57.375Z,15.09
2023-03-27T11:46:56.317Z,15.21
2023-03-27T11:47:56.431Z,15.61
2023-03-27T11:48:56.254Z,16.10
2023-03-27T11:49:56.282Z,16.69
2023-03-27T11:50:56.436Z,17.29
2023-03-27T11:51:57.197Z,16.17
2023-03-27T11:52:56.231Z,15.04
2023-03-27T11:53:56.183Z,15.22
2023-03-27T11:54:56.200Z,14.94
2023-03-27T11:55:56.201Z,14.53
2023-03-27T11:56:56.375Z,14.05
2023-03-27T11:57:57.090Z,13.47
2023-03-27T11:58:56.144Z,12.86
2023-03-27T11:59:56.160Z,12.86
2023-03-27T12:00:56.236Z,13.13
2023-03-27T12:01:56.112Z,12.98
2023-03-27T12:02:57.139Z,12.87
2023-03-27T12:03:56.215Z,12.85
2023-03-27T12:04:56.062Z,12.75
2023-03-27T12:05:56.157Z,12.65
2023-03-27T12:06:57.023Z,12.55
2023-03-27T12:07:56.048Z,12.50
2023-03-27T12:08:56.940Z,12.43
2023-03-27T12:09:56.042Z,11.45
2023-03-27T12:10:56.183Z,10.48
2023-03-27T12:11:55.977Z,10.01
2023-03-27T12:12:55.949Z,9.79
2023-03-27T12:14:01.647Z,9.65
2023-03-27T12:14:58.383Z,9.69
2023-03-27T12:15:55.965Z,10.25
2023-03-27T12:16:55.983Z,11.12
2023-03-27T12:17:56.005Z,11.91
2023-03-27T12:19:03.832Z,12.61
2023-03-27T12:19:58.245Z,13.00
2023-03-27T12:20:56.844Z,13.68
2023-03-27T12:21:55.851Z,13.97
2023-03-27T12:22:55.819Z,14.47
2023-03-27T12:23:56.150Z,15.10
2023-03-27T12:24:59.745Z,15.75
2023-03-27T12:25:55.811Z,16.38
2023-03-27T12:26:56.746Z,16.90
2023-03-27T12:27:55.806Z,17.36
2023-03-27T12:28:55.759Z,17.76
2023-03-27T12:29:55.736Z,17.80
2023-03-27T12:30:55.929Z,17.54
2023-03-27T12:31:56.660Z,17.70
2023-03-27T12:32:56.701Z,17.76
2023-03-27T12:33:55.667Z,17.57
2023-03-27T12:34:55.714Z,17.76
2023-03-27T12:35:55.698Z,17.90
2023-03-27T12:36:55.661Z,18.41
2023-03-27T12:37:56.607Z,18.83
2023-03-27T12:38:55.623Z,18.62
2023-03-27T12:39:55.606Z,19.19
2023-03-27T12:40:55.842Z,18.75
2023-03-27T12:41:55.582Z,18.75
2023-03-27T12:42:56.572Z,17.72
2023-03-27T12:43:55.561Z,16.58
2023-03-27T12:44:56.135Z,15.47
2023-03-27T12:45:55.610Z,14.58
2023-03-27T12:46:55.541Z,14.05
2023-03-27T12:47:55.586Z,14.37
2023-03-27T12:48:56.453Z,15.00
2023-03-27T12:49:55.482Z,14.65
2023-03-27T12:50:55.652Z,14.43
2023-03-27T12:51:55.451Z,14.23
2023-03-27T12:52:55.470Z,14.04
2023-03-27T12:53:56.375Z,13.77
2023-03-27T12:54:55.410Z,13.56
2023-03-27T12:55:55.560Z,13.31
2023-03-27T12:56:55.543Z,13.08
2023-03-27T12:57:55.660Z,12.82
2023-03-27T12:58:56.347Z,12.53
2023-03-27T12:59:55.368Z,12.27
2023-03-27T13:00:55.614Z,12.09
2023-03-27T13:01:55.427Z,11.94
2023-03-27T13:02:55.443Z,11.62
2023-03-27T13:03:56.308Z,11.08
2023-03-27T13:04:55.275Z,9.82
2023-03-27T13:05:55.317Z,9.29
2023-03-27T13:06:55.247Z,9.13
2023-03-27T13:07:55.285Z,9.21
2023-03-27T13:08:56.202Z,9.34
2023-03-27T13:09:55.217Z,9.64
2023-03-27T13:10:55.514Z,10.33
2023-03-27T13:11:55.249Z,11.18